Time;durP1;ratioP1;P1;durP2;ratioP2;P2;SDS_P1;SDS_P2;PMS_P1;PMS_P2;Temp;Humidity;BMP_temperature;BMP_pressure;BME280_temperature;BME280_humidity;BME280_pressure;Samples;Min_cycle;Max_cycle;Signal;HPM_P1;HPM_P2
2023/01/30 00:00:18;;;;;;;;;;;;;;;-3.56;65.84;93221.03;2051586;70;20050;-78
2023/01/30 00:02:43;;;;;;;;;;;;;;;-3.45;65.13;93228.47;2048129;70;20054;-78
2023/01/30 00:05:09;;;;;;;;;;;;;;;-3.51;65.45;93214.75;2051685;70;20058;-78
2023/01/30 00:07:35;;;;;;;;;;;;;;;-3.50;64.70;93216.25;2051891;70;20058;-79
2023/01/30 00:10:01;;;;;;;;;;;;;;;-3.51;65.19;93214.75;2051580;70;20050;-79
2023/01/30 00:12:26;;;;;;;;;;;;;;;-3.52;65.38;93209.75;2045689;70;20061;-79
2023/01/30 00:14:52;;;;;;;;;;;;;;;-3.44;65.12;93197.69;2051990;70;20058;-77
2023/01/30 00:17:17;;;;;;;;;;;;;;;-3.61;64.68;93202.53;2048957;70;20145;-78
2023/01/30 00:19:43;;;;;;;;;;;;;;;-3.53;65.89;93200.00;2051683;70;20073;-78
2023/01/30 00:22:08;;;;;;;;;;;;;;;-3.47;65.33;93203.47;2048206;70;20053;-79
2023/01/30 00:24:34;;;;;;;;;;;;;;;-3.50;64.00;93196.97;2051703;70;20043;-78
2023/01/30 00:26:59;;;;;;;;;;;;;;;-3.55;65.07;93191.50;2048287;70;20046;-79
2023/01/30 00:29:25;;;;;;;;;;;;;;;-3.55;64.14;93195.00;2051458;70;20093;-78
2023/01/30 00:31:53;;;;;;;;;;;;;;;-3.52;65.03;93193.25;2051436;70;20050;-79
2023/01/30 00:34:18;;;;;;;;;;;;;;;-3.70;65.90;93191.81;2051647;70;20046;-80
2023/01/30 00:36:43;;;;;;;;;;;;;;;-3.51;65.07;93192.72;2048059;70;20240;-78
2023/01/30 00:39:09;;;;;;;;;;;;;;;-3.76;65.08;93183.56;2045398;70;20058;-79
2023/01/30 00:47:05;;;;;;;;;;;;;;;-3.76;66.18;93164.31;2052043;70;20054;-79
2023/01/30 00:49:31;;;;;;;;;;;;;;;-3.62;65.69;93168.00;2051594;70;20054;-79
2023/01/30 00:51:57;;;;;;;;;;;;;;;-3.53;64.94;93162.19;2051464;70;20120;-78
2023/01/30 00:54:23;;;;;;;;;;;;;;;-3.58;64.72;93165.72;2048250;70;20055;-76
2023/01/30 00:56:50;;;;;;;;;;;;;;;-3.66;63.88;93164.78;2047716;70;20050;-78
2023/01/30 00:59:15;;;;;;;;;;;;;;;-3.61;64.45;93148.25;2051570;70;20045;-79
2023/01/30 01:01:43;;;;;;;;;;;;;;;-3.70;63.61;93147.78;2051586;70;20086;-78
2023/01/30 01:04:09;;;;;;;;;;;;;;;-3.65;64.33;93144.25;2051471;70;20058;-80
2023/01/30 01:06:36;;;;;;;;;;;;;;;-3.91;65.33;93139.88;2047985;70;20141;-79
2023/01/30 01:09:02;;;;;;;;;;;;;;;-3.85;66.03;93145.34;2048071;70;20113;-78
2023/01/30 01:11:28;;;;;;;;;;;;;;;-3.74;65.16;93147.31;2048057;70;20066;-79
2023/01/30 01:13:58;;;;;;;;;;;;;;;-3.72;65.66;93142.03;2051260;70;20478;-79
2023/01/30 01:16:24;;;;;;;;;;;;;;;-3.75;65.53;93130.06;2051447;70;20078;-77
2023/01/30 01:18:50;;;;;;;;;;;;;;;-3.85;64.66;93139.84;2051258;70;20138;-78
2023/01/30 01:21:17;;;;;;;;;;;;;;;-4.17;66.40;93134.72;2051699;70;20117;-78
2023/01/30 01:23:43;;;;;;;;;;;;;;;-3.98;66.66;93132.16;2051674;70;20660;-77
2023/01/30 01:26:10;;;;;;;;;;;;;;;-3.85;65.71;93129.59;2051743;70;20517;-78
2023/01/30 01:28:35;;;;;;;;;;;;;;;-4.04;66.61;93131.41;2048224;70;20422;-77
2023/01/30 01:31:06;;;;;;;;;;;;;;;-4.01;65.34;93138.66;2051629;70;20054;-79
2023/01/30 01:33:32;;;;;;;;;;;;;;;-3.86;65.67;93130.84;2047918;70;20101;-77
2023/01/30 01:35:57;;;;;;;;;;;;;;;-3.85;65.56;93134.34;2047957;70;20620;-79
2023/01/30 01:38:23;;;;;;;;;;;;;;;-3.79;65.71;93132.31;2051560;70;20510;-79
2023/01/30 01:41:03;;;;;;;;;;;;;;;-3.74;65.09;93126.03;2048331;70;20077;-78
2023/01/30 01:43:36;;;;;;;;;;;;;;;-4.05;67.20;93120.94;2051628;70;20141;-79
2023/01/30 01:46:11;;;;;;;;;;;;;;;-3.92;65.40;93119.13;2051687;70;20050;-79
2023/01/30 01:48:39;;;;;;;;;;;;;;;-4.09;65.21;93119.19;2048359;70;20114;-80
2023/01/30 01:51:09;;;;;;;;;;;;;;;-3.96;65.28;93107.63;2051532;70;20113;-78
2023/01/30 01:53:37;;;;;;;;;;;;;;;-3.89;64.99;93109.13;2050212;70;20486;-78
2023/01/30 01:56:04;;;;;;;;;;;;;;;-4.06;65.03;93102.94;2048161;70;20097;-80
2023/01/30 01:58:45;;;;;;;;;;;;;;;-4.21;66.13;93106.75;2048001;70;20173;-77
2023/01/30 02:01:10;;;;;;;;;;;;;;;-4.18;65.10;93100.22;2051394;70;20074;-77
2023/01/30 02:03:39;;;;;;;;;;;;;;;-4.10;65.96;93101.19;2048160;70;20484;-77
2023/01/30 02:06:06;;;;;;;;;;;;;;;-4.02;64.66;93092.44;2051313;70;20059;-77
2023/01/30 02:08:37;;;;;;;;;;;;;;;-4.16;64.62;93096.97;2045352;70;20049;-77
2023/01/30 02:11:08;;;;;;;;;;;;;;;-4.24;65.12;93093.25;2051221;70;20133;-77
2023/01/30 02:13:36;;;;;;;;;;;;;;;-4.18;65.44;93088.47;2048369;70;20413;-78
2023/01/30 02:16:02;;;;;;;;;;;;;;;-4.16;64.99;93083.97;2051750;70;20513;-77
2023/01/30 02:18:29;;;;;;;;;;;;;;;-3.99;65.67;93083.88;2051943;70;20527;-78
2023/01/30 02:21:14;;;;;;;;;;;;;;;-3.91;65.05;93078.59;2051930;70;20038;-79
2023/01/30 02:23:54;;;;;;;;;;;;;;;-4.00;64.97;93079.66;2045431;70;20152;-78
2023/01/30 02:26:23;;;;;;;;;;;;;;;-4.00;66.35;93079.66;2051849;70;20058;-78
2023/01/30 02:28:55;;;;;;;;;;;;;;;-4.18;66.03;93075.47;2050386;70;20047;-76
2023/01/30 02:31:24;;;;;;;;;;;;;;;-4.18;65.42;93091.22;2049809;70;20142;-79
2023/01/30 02:33:56;;;;;;;;;;;;;;;-4.28;65.46;93088.00;2048432;70;20046;-79
2023/01/30 02:36:33;;;;;;;;;;;;;;;-4.33;65.39;93083.28;2048555;70;20220;-79
2023/01/30 02:39:11;;;;;;;;;;;;;;;-4.42;65.63;93080.81;2051874;70;20507;-78
2023/01/30 02:41:44;;;;;;;;;;;;;;;-4.47;66.21;93076.09;2052028;70;20055;-79
2023/01/30 02:44:17;;;;;;;;;;;;;;;-4.50;65.66;93068.84;2048235;70;20062;-78
2023/01/30 02:46:49;;;;;;;;;;;;;;;-4.46;66.29;93058.34;2048711;70;20109;-77
2023/01/30 02:49:19;;;;;;;;;;;;;;;-4.47;65.85;93056.84;2048457;70;20046;-79
2023/01/30 02:51:46;;;;;;;;;;;;;;;-4.24;66.01;93058.25;2051675;70;20502;-78
2023/01/30 02:54:13;;;;;;;;;;;;;;;-4.30;66.21;93067.78;2048332;70;20055;-78
2023/01/30 02:56:47;;;;;;;;;;;;;;;-4.39;64.71;93068.84;2048608;70;20049;-78
2023/01/30 02:59:15;;;;;;;;;;;;;;;-4.39;65.12;93066.81;2051851;70;20074;-77
2023/01/30 03:01:54;;;;;;;;;;;;;;;-4.32;65.53;93065.53;2048462;70;20034;-78
2023/01/30 03:04:34;;;;;;;;;;;;;;;-4.48;66.01;93067.09;2048632;70;20137;-79
2023/01/30 03:07:00;;;;;;;;;;;;;;;-4.50;64.86;93063.34;2048484;70;20537;-79
2023/01/30 03:09:53;;;;;;;;;;;;;;;-4.51;66.08;93070.84;2048407;70;20109;-77
2023/01/30 03:12:28;;;;;;;;;;;;;;;-4.57;65.41;93077.63;2047807;70;20077;-78
2023/01/30 03:15:23;;;;;;;;;;;;;;;-4.70;66.05;93070.66;2048459;70;20062;-79
2023/01/30 03:17:49;;;;;;;;;;;;;;;-4.54;67.02;93069.09;2044308;70;20120;-79
2023/01/30 03:20:17;;;;;;;;;;;;;;;-4.47;66.92;93065.09;2045803;70;20050;-77
2023/01/30 03:22:44;;;;;;;;;;;;;;;-4.33;65.82;93061.31;2048399;70;20445;-79
2023/01/30 03:25:12;;;;;;;;;;;;;;;-4.61;65.42;93073.13;2048517;70;20467;-79
2023/01/30 03:27:39;;;;;;;;;;;;;;;-4.67;66.14;93077.16;2048601;70;20077;-78
2023/01/30 03:30:05;;;;;;;;;;;;;;;-4.60;65.98;93088.34;2053755;70;20043;-79
2023/01/30 03:32:30;;;;;;;;;;;;;;;-4.53;65.38;93095.34;2048243;70;20396;-78
2023/01/30 03:34:55;;;;;;;;;;;;;;;-4.65;66.58;93085.63;2047703;70;20035;-78
2023/01/30 03:37:21;;;;;;;;;;;;;;;-4.78;66.68;93088.91;2047852;70;20089;-78
2023/01/30 03:39:46;;;;;;;;;;;;;;;-4.78;66.38;93099.13;2047967;70;20164;-78
2023/01/30 03:42:14;;;;;;;;;;;;;;;-4.62;66.62;93087.38;2048067;70;20545;-79
2023/01/30 03:44:39;;;;;;;;;;;;;;;-4.68;66.09;93092.88;2048464;70;20086;-78
2023/01/30 03:47:06;;;;;;;;;;;;;;;-4.64;66.78;93098.13;2047933;70;20434;-78
2023/01/30 03:49:31;;;;;;;;;;;;;;;-4.62;66.54;93090.88;2047726;70;20505;-78
2023/01/30 03:51:57;;;;;;;;;;;;;;;-4.58;65.57;93098.09;2047753;70;20050;-77
2023/01/30 03:54:22;;;;;;;;;;;;;;;-4.58;66.22;93095.34;2047935;70;20046;-78
2023/01/30 03:56:48;;;;;;;;;;;;;;;-4.48;66.50;93102.09;2047676;70;20058;-78
2023/01/30 03:59:14;;;;;;;;;;;;;;;-4.65;66.84;93100.13;2045068;70;20086;-79
2023/01/30 04:01:47;;;;;;;;;;;;;;;-4.63;66.89;93108.63;2048529;70;20087;-78
2023/01/30 04:04:12;;;;;;;;;;;;;;;-4.55;67.33;93108.84;2047860;70;20090;-78
2023/01/30 04:06:38;;;;;;;;;;;;;;;-4.47;66.90;93103.56;2047868;70;20051;-79
2023/01/30 04:09:03;;;;;;;;;;;;;;;-4.50;67.71;93104.56;2047765;70;20160;-76
2023/01/30 04:11:39;;;;;;;;;;;;;;;-4.39;67.55;93091.56;2047458;70;20162;-78
2023/01/30 04:14:04;;;;;;;;;;;;;;;-4.38;67.85;93104.03;2048400;70;20053;-81
2023/01/30 04:16:34;;;;;;;;;;;;;;;-4.27;66.96;93111.50;2051814;70;20070;-78
2023/01/30 04:19:28;;;;;;;;;;;;;;;-4.27;67.39;93128.00;2046151;70;20162;-79
2023/01/30 04:21:53;;;;;;;;;;;;;;;-4.25;66.61;93113.75;2048594;70;20562;-79
2023/01/30 04:24:19;;;;;;;;;;;;;;;-4.30;66.59;93107.03;2047891;70;20055;-78
2023/01/30 04:26:45;;;;;;;;;;;;;;;-4.13;66.77;93104.94;2047950;70;20422;-78
2023/01/30 04:29:11;;;;;;;;;;;;;;;-4.19;66.15;93095.25;2047757;70;20063;-78
2023/01/30 04:31:37;;;;;;;;;;;;;;;-4.37;66.59;93094.53;2047943;70;20082;-77
2023/01/30 04:34:15;;;;;;;;;;;;;;;-4.31;65.73;93100.00;2047990;70;20069;-77
2023/01/30 04:36:41;;;;;;;;;;;;;;;-4.23;65.09;93097.50;2048425;70;20504;-79
2023/01/30 04:39:07;;;;;;;;;;;;;;;-4.19;65.52;93092.50;2048295;70;20066;-77
2023/01/30 04:41:33;;;;;;;;;;;;;;;-4.19;65.26;93079.47;2048454;70;20431;-77
2023/01/30 04:43:59;;;;;;;;;;;;;;;-4.21;66.29;93078.50;2051635;70;20078;-79
2023/01/30 04:46:54;;;;;;;;;;;;;;;-4.16;65.95;93083.22;2049226;70;20109;-78
2023/01/30 04:49:20;;;;;;;;;;;;;;;-4.33;65.88;93066.78;2048391;70;20493;-78
2023/01/30 04:51:50;;;;;;;;;;;;;;;-4.09;65.60;93055.94;2048477;70;20055;-77
2023/01/30 04:54:16;;;;;;;;;;;;;;;-4.11;65.96;93063.22;2048424;70;20491;-78
2023/01/30 04:56:42;;;;;;;;;;;;;;;-3.74;64.60;93062.00;2051595;70;20054;-77
2023/01/30 04:59:07;;;;;;;;;;;;;;;-3.70;64.62;93068.00;2048213;70;20102;-77
2023/01/30 05:01:41;;;;;;;;;;;;;;;-3.88;65.47;93064.59;2048469;70;20502;-77
2023/01/30 05:04:07;;;;;;;;;;;;;;;-3.75;64.87;93066.78;2048585;70;20069;-77
2023/01/30 05:06:34;;;;;;;;;;;;;;;-3.69;64.25;93052.97;2052532;70;20563;-77
2023/01/30 05:09:00;;;;;;;;;;;;;;;-3.62;64.49;93042.19;2051749;70;20134;-77
2023/01/30 05:11:26;;;;;;;;;;;;;;;-4.00;65.13;93032.16;2051694;70;20046;-77
2023/01/30 05:13:51;;;;;;;;;;;;;;;-3.94;65.42;93030.88;2048256;70;20063;-79
2023/01/30 05:16:18;;;;;;;;;;;;;;;-3.69;64.46;93031.72;2048249;70;20057;-78
2023/01/30 05:18:43;;;;;;;;;;;;;;;-3.63;64.31;93034.41;2051587;70;20134;-78
2023/01/30 05:21:13;;;;;;;;;;;;;;;-3.60;63.65;93028.63;2051772;70;20578;-78
2023/01/30 05:23:39;;;;;;;;;;;;;;;-3.52;63.93;93028.09;2051690;70;20051;-78
2023/01/30 05:26:04;;;;;;;;;;;;;;;-3.46;64.94;93037.78;2051532;70;20049;-78
2023/01/30 05:28:30;;;;;;;;;;;;;;;-3.66;65.44;93052.72;2051354;70;20038;-78
2023/01/30 05:31:12;;;;;;;;;;;;;;;-3.56;65.29;93066.91;2051539;70;20475;-78
2023/01/30 05:33:38;;;;;;;;;;;;;;;-3.43;64.46;93064.31;2051154;70;20589;-79
2023/01/30 05:36:04;;;;;;;;;;;;;;;-3.50;65.02;93053.09;2051675;70;20051;-78
2023/01/30 05:38:30;;;;;;;;;;;;;;;-3.35;64.43;93036.97;2051491;70;20067;-77
2023/01/30 05:41:00;;;;;;;;;;;;;;;-3.19;63.78;93021.56;2051479;70;20054;-79
2023/01/30 05:43:25;;;;;;;;;;;;;;;-3.13;63.56;93012.00;2051408;70;20426;-79
2023/01/30 05:45:52;;;;;;;;;;;;;;;-3.08;63.32;93010.44;2051355;70;20050;-77
2023/01/30 05:48:17;;;;;;;;;;;;;;;-3.04;63.60;93007.41;2051537;70;20039;-78
2023/01/30 05:50:43;;;;;;;;;;;;;;;-3.17;63.50;93013.53;2051733;70;20046;-78
2023/01/30 05:53:09;;;;;;;;;;;;;;;-3.08;64.06;93029.72;2051597;70;20050;-79
2023/01/30 05:55:35;;;;;;;;;;;;;;;-3.32;65.06;93044.19;2051434;70;20153;-79
2023/01/30 05:58:01;;;;;;;;;;;;;;;-3.39;64.35;93042.00;2051648;70;20047;-79
2023/01/30 06:00:27;;;;;;;;;;;;;;;-3.07;63.63;93025.69;2051724;70;20046;-78
2023/01/30 06:02:52;;;;;;;;;;;;;;;-3.08;63.80;93022.19;2052218;70;20090;-78
2023/01/30 06:05:17;;;;;;;;;;;;;;;-3.08;63.48;92999.44;2055038;70;20567;-79
2023/01/30 06:07:43;;;;;;;;;;;;;;;-3.15;63.75;92981.47;2051628;70;20734;-78
2023/01/30 06:10:09;;;;;;;;;;;;;;;-3.14;63.54;92979.47;2051583;70;20054;-79
2023/01/30 06:12:34;;;;;;;;;;;;;;;-2.94;62.93;92961.72;2051605;70;20062;-77
2023/01/30 06:14:59;;;;;;;;;;;;;;;-3.17;63.23;92945.44;2051584;70;20426;-79
2023/01/30 06:17:25;;;;;;;;;;;;;;;-3.14;62.79;92960.19;2051512;70;20422;-79
2023/01/30 06:19:51;;;;;;;;;;;;;;;-3.40;64.47;92961.41;2051545;70;20396;-77
2023/01/30 06:22:17;;;;;;;;;;;;;;;-3.51;65.01;92977.28;2048216;70;20135;-78
2023/01/30 06:24:42;;;;;;;;;;;;;;;-3.42;63.95;92974.97;2051478;70;20051;-77
2023/01/30 06:27:08;;;;;;;;;;;;;;;-3.49;63.89;92969.25;2048020;70;20086;-79
2023/01/30 06:29:34;;;;;;;;;;;;;;;-3.28;64.02;92975.09;2051784;70;20217;-79
2023/01/30 06:31:59;;;;;;;;;;;;;;;-3.20;63.23;92982.28;2051454;70;20082;-78
2023/01/30 06:34:24;;;;;;;;;;;;;;;-3.60;63.76;92986.63;2051509;70;20069;-79
2023/01/30 06:36:50;;;;;;;;;;;;;;;-3.51;64.74;92982.78;2051416;70;20045;-77
2023/01/30 06:39:15;;;;;;;;;;;;;;;-3.45;63.87;92989.00;2051471;70;20053;-77
2023/01/30 06:41:41;;;;;;;;;;;;;;;-3.42;62.95;92979.72;2053410;70;20146;-78
2023/01/30 06:44:07;;;;;;;;;;;;;;;-3.32;62.85;92986.38;2045289;70;20475;-78
2023/01/30 06:46:33;;;;;;;;;;;;;;;-3.30;63.20;92977.59;2051388;70;20050;-77
2023/01/30 06:48:58;;;;;;;;;;;;;;;-3.65;64.64;93001.16;2051345;70;20403;-77
2023/01/30 06:51:26;;;;;;;;;;;;;;;-3.52;63.81;92998.56;2051419;70;20098;-78
2023/01/30 06:53:52;;;;;;;;;;;;;;;-3.42;63.61;93007.25;2051377;70;20486;-79
2023/01/30 06:56:18;;;;;;;;;;;;;;;-3.39;63.63;93022.72;2051318;70;20139;-79
2023/01/30 06:58:44;;;;;;;;;;;;;;;-3.34;63.27;93011.69;2051556;70;20572;-79
2023/01/30 07:01:10;;;;;;;;;;;;;;;-3.40;63.45;93007.47;2051960;70;20475;-79
2023/01/30 07:03:35;;;;;;;;;;;;;;;-3.46;63.40;93002.00;2051814;70;20053;-79
2023/01/30 07:06:00;;;;;;;;;;;;;;;-3.39;63.85;93003.44;2051855;70;20137;-79
2023/01/30 07:08:26;;;;;;;;;;;;;;;-3.27;63.33;93009.63;2051926;70;20042;-78
2023/01/30 07:10:52;;;;;;;;;;;;;;;-3.51;64.95;93013.81;2051850;70;20142;-78
2023/01/30 07:13:17;;;;;;;;;;;;;;;-3.49;64.25;93019.53;2051806;70;20051;-76
2023/01/30 07:15:43;;;;;;;;;;;;;;;-3.39;64.58;93017.22;2051935;70;20491;-78
2023/01/30 07:18:08;;;;;;;;;;;;;;;-3.29;64.48;93010.16;2051812;70;20054;-78
2023/01/30 07:20:34;;;;;;;;;;;;;;;-3.21;64.19;93018.56;2051900;70;20161;-80
2023/01/30 07:23:00;;;;;;;;;;;;;;;-3.19;64.26;93029.84;2048553;70;20046;-78
2023/01/30 07:25:27;;;;;;;;;;;;;;;-3.10;64.01;93035.75;2051931;70;20054;-78
2023/01/30 07:27:57;;;;;;;;;;;;;;;-2.98;63.65;93043.91;2048473;70;20050;-77
2023/01/30 07:30:24;;;;;;;;;;;;;;;-2.90;63.25;93028.31;2048483;70;20074;-78
2023/01/30 07:32:53;;;;;;;;;;;;;;;-2.94;63.19;93011.31;2051802;70;20137;-78
2023/01/30 07:35:19;;;;;;;;;;;;;;;-2.84;63.77;92996.69;2051773;70;20058;-78
2023/01/30 07:37:47;;;;;;;;;;;;;;;-3.41;64.80;92994.97;2048593;70;20507;-79
2023/01/30 07:40:14;;;;;;;;;;;;;;;-3.16;65.00;93001.25;2051696;70;20043;-77
2023/01/30 07:42:43;;;;;;;;;;;;;;;-2.92;64.09;92998.53;2051691;70;20054;-77
2023/01/30 07:45:09;;;;;;;;;;;;;;;-2.77;64.03;93011.16;2051757;70;20460;-77
2023/01/30 07:47:34;;;;;;;;;;;;;;;-2.76;63.95;93007.88;2048568;70;20102;-78
2023/01/30 07:50:00;;;;;;;;;;;;;;;-2.78;63.81;93015.19;2052601;70;20053;-78
2023/01/30 07:52:28;;;;;;;;;;;;;;;-2.65;63.27;93015.28;2054376;70;20053;-79
2023/01/30 07:54:53;;;;;;;;;;;;;;;-3.11;64.22;93019.75;2048827;70;20047;-80
2023/01/30 07:57:19;;;;;;;;;;;;;;;-2.94;64.84;93022.34;2051901;70;20049;-79
2023/01/30 07:59:44;;;;;;;;;;;;;;;-2.90;64.07;93039.31;2051968;70;20097;-78
2023/01/30 08:02:11;;;;;;;;;;;;;;;-2.71;63.88;93025.59;2051785;70;20050;-76
2023/01/30 08:04:37;;;;;;;;;;;;;;;-2.65;64.01;93024.31;2051847;70;20508;-77
2023/01/30 08:07:02;;;;;;;;;;;;;;;-2.56;64.02;93023.22;2051700;70;20063;-76
2023/01/30 08:09:28;;;;;;;;;;;;;;;-2.39;63.66;93020.97;2051658;70;20050;-78
2023/01/30 08:11:53;;;;;;;;;;;;;;;-2.49;63.66;93019.13;2047830;70;20113;-77
2023/01/30 08:14:19;;;;;;;;;;;;;;;-2.37;62.92;93021.22;2051754;70;20047;-78
2023/01/30 08:16:44;;;;;;;;;;;;;;;-2.20;63.46;93018.28;2052800;70;20518;-78
2023/01/30 08:19:10;;;;;;;;;;;;;;;-2.01;63.33;93012.78;2048841;70;20497;-78
2023/01/30 08:21:36;;;;;;;;;;;;;;;-1.87;63.21;93008.81;2051566;70;20054;-78
2023/01/30 08:24:02;;;;;;;;;;;;;;;-1.82;62.95;92999.69;2048348;70;20042;-78
2023/01/30 08:26:30;;;;;;;;;;;;;;;-1.81;61.79;93003.94;2051672;70;20055;-78
2023/01/30 08:28:56;;;;;;;;;;;;;;;-1.75;61.78;93001.09;2051467;70;20109;-78
2023/01/30 08:31:24;;;;;;;;;;;;;;;-1.62;61.65;93008.72;2051682;70;20158;-78
2023/01/30 08:33:50;;;;;;;;;;;;;;;-1.83;62.56;92998.22;2051632;70;20154;-78
2023/01/30 08:36:15;;;;;;;;;;;;;;;-2.03;62.65;93007.00;2051604;70;20050;-78
2023/01/30 08:38:41;;;;;;;;;;;;;;;-1.93;63.12;92999.84;2048466;70;20137;-78
2023/01/30 08:41:07;;;;;;;;;;;;;;;-1.48;62.34;92996.44;2051679;70;20141;-79
2023/01/30 08:43:33;;;;;;;;;;;;;;;-1.22;62.50;92990.25;2052122;70;20053;-79
2023/01/30 08:45:59;;;;;;;;;;;;;;;-1.27;63.94;92973.78;2051652;70;20038;-78
2023/01/30 08:48:25;;;;;;;;;;;;;;;-0.99;61.21;92973.31;2048393;70;20528;-78
2023/01/30 08:50:54;;;;;;;;;;;;;;;-0.58;61.33;92979.06;2051661;70;20518;-79
2023/01/30 08:53:20;;;;;;;;;;;;;;;-0.26;61.81;92975.44;2051690;70;20407;-78
2023/01/30 08:55:48;;;;;;;;;;;;;;;0.00;61.48;92982.97;2048360;70;20047;-78
2023/01/30 08:58:14;;;;;;;;;;;;;;;0.30;60.00;92973.50;2048313;70;20038;-78
2023/01/30 09:00:43;;;;;;;;;;;;;;;0.67;60.04;92964.06;2051624;70;20530;-79
2023/01/30 09:03:15;;;;;;;;;;;;;;;0.91;60.31;92974.81;2051631;70;20045;-79
2023/01/30 09:05:40;;;;;;;;;;;;;;;1.06;59.19;92985.31;2051529;70;20049;-78
2023/01/30 09:08:06;;;;;;;;;;;;;;;0.84;55.46;92980.31;2051596;70;20047;-79
2023/01/30 09:10:31;;;;;;;;;;;;;;;1.27;55.89;92983.22;2048412;70;20459;-79
2023/01/30 09:12:57;;;;;;;;;;;;;;;1.84;55.47;92973.44;2051319;70;20049;-80
2023/01/30 09:15:22;;;;;;;;;;;;;;;2.34;55.29;92960.06;2051766;70;20058;-79
2023/01/30 09:17:48;;;;;;;;;;;;;;;2.93;54.95;92958.00;2051629;70;20486;-80
2023/01/30 09:20:13;;;;;;;;;;;;;;;3.18;54.02;92960.22;2051576;70;20053;-80
2023/01/30 09:22:40;;;;;;;;;;;;;;;2.60;51.35;92954.22;2051718;70;20139;-75
2023/01/30 09:25:05;;;;;;;;;;;;;;;2.53;50.77;92944.59;2051653;70;20054;-80
2023/01/30 09:27:31;;;;;;;;;;;;;;;2.31;50.81;92933.41;2051591;70;20046;-79
2023/01/30 09:29:56;;;;;;;;;;;;;;;2.26;50.73;92926.75;2051589;70;20046;-79
2023/01/30 09:32:23;;;;;;;;;;;;;;;1.88;51.18;92929.38;2051465;70;20046;-79
2023/01/30 09:34:49;;;;;;;;;;;;;;;2.32;51.23;92935.63;2051624;70;20043;-80
2023/01/30 09:37:15;;;;;;;;;;;;;;;2.48;50.90;92925.31;2052620;70;20069;-77
2023/01/30 09:39:40;;;;;;;;;;;;;;;1.42;51.52;92929.91;2056008;70;20483;-81
2023/01/30 09:42:24;;;;;;;;;;;;;;;1.56;52.19;92922.22;2052026;70;20415;-80
2023/01/30 09:45:08;;;;;;;;;;;;;;;1.49;51.87;92931.97;2051774;70;20430;-80
2023/01/30 09:47:47;;;;;;;;;;;;;;;1.74;51.43;92940.63;2051602;70;20058;-81
2023/01/30 09:50:13;;;;;;;;;;;;;;;2.11;51.23;92935.78;2051563;70;20146;-80
2023/01/30 09:53:02;;;;;;;;;;;;;;;2.36;50.75;92947.13;2054651;70;20130;-80
2023/01/30 09:55:29;;;;;;;;;;;;;;;1.86;51.19;92920.84;2052087;70;20046;-79
2023/01/30 09:57:56;;;;;;;;;;;;;;;2.19;50.56;92883.00;2051428;70;20242;-78
2023/01/30 10:00:35;;;;;;;;;;;;;;;2.62;51.03;92868.25;2051583;70;20150;-78
2023/01/30 10:03:11;;;;;;;;;;;;;;;2.89;49.22;92892.91;2051526;70;20050;-80
2023/01/30 10:05:40;;;;;;;;;;;;;;;2.60;50.82;92898.63;2051722;70;20050;-81
2023/01/30 10:08:24;;;;;;;;;;;;;;;3.27;49.23;92890.09;2051505;70;20057;-81
2023/01/30 10:10:57;;;;;;;;;;;;;;;2.26;49.22;92894.13;2051638;70;20481;-80
2023/01/30 10:13:34;;;;;;;;;;;;;;;2.89;48.79;92901.25;2051301;70;20089;-79
2023/01/30 10:16:09;;;;;;;;;;;;;;;3.05;49.28;92906.25;2051561;70;20042;-79
2023/01/30 10:18:54;;;;;;;;;;;;;;;3.05;48.22;92911.06;2048091;70;20074;-80
2023/01/30 10:21:28;;;;;;;;;;;;;;;2.04;48.95;92903.91;2051554;70;20043;-79
2023/01/30 10:24:12;;;;;;;;;;;;;;;3.01;49.29;92899.56;2048426;70;20466;-79
2023/01/30 10:26:38;;;;;;;;;;;;;;;3.00;48.32;92892.53;2051843;70;20417;-82
2023/01/30 10:29:19;;;;;;;;;;;;;;;3.57;48.39;92892.06;2051486;70;20059;-79
2023/01/30 10:31:53;;;;;;;;;;;;;;;3.51;47.33;92883.91;2051528;70;20066;-80
2023/01/30 10:34:21;;;;;;;;;;;;;;;3.14;47.97;92862.47;2051979;70;20058;-81
2023/01/30 10:36:49;;;;;;;;;;;;;;;2.58;47.60;92839.34;2052014;70;20042;-81
2023/01/30 10:39:20;;;;;;;;;;;;;;;3.36;48.07;92845.00;2051945;70;20157;-80
2023/01/30 10:42:06;;;;;;;;;;;;;;;3.22;47.53;92838.16;2051918;70;20047;-80
2023/01/30 10:44:33;;;;;;;;;;;;;;;2.99;48.22;92832.66;2051923;70;20050;-80
2023/01/30 10:46:58;;;;;;;;;;;;;;;3.30;48.61;92836.13;2052009;70;20053;-78
2023/01/30 10:49:42;;;;;;;;;;;;;;;3.56;48.30;92837.69;2048638;70;20074;-77
2023/01/30 10:52:27;;;;;;;;;;;;;;;3.62;47.78;92832.69;2051669;70;20053;-77
2023/01/30 10:55:00;;;;;;;;;;;;;;;3.41;48.14;92823.84;2048490;70;20113;-77
2023/01/30 10:57:25;;;;;;;;;;;;;;;3.68;48.62;92824.84;2052030;70;20133;-78
2023/01/30 11:00:15;;;;;;;;;;;;;;;4.39;48.43;92813.47;2052284;70;20073;-78
2023/01/30 11:02:49;;;;;;;;;;;;;;;4.72;46.78;92816.97;2051709;70;20046;-78
2023/01/30 11:05:20;;;;;;;;;;;;;;;4.77;45.97;92809.69;2051856;70;20063;-78
2023/01/30 11:07:46;;;;;;;;;;;;;;;4.64;47.20;92796.78;2052862;70;20070;-78
2023/01/30 11:10:16;;;;;;;;;;;;;;;5.15;46.41;92775.09;2052335;70;20149;-81
2023/01/30 11:12:42;;;;;;;;;;;;;;;5.81;44.79;92768.53;2051893;70;20226;-80
2023/01/30 11:15:07;;;;;;;;;;;;;;;7.41;43.39;92766.59;2052325;70;20047;-80
2023/01/30 11:17:33;;;;;;;;;;;;;;;9.37;42.47;92762.00;2052592;70;20154;-81
2023/01/30 11:20:18;;;;;;;;;;;;;;;10.13;41.36;92750.72;2051911;70;20082;-79
2023/01/30 11:22:48;;;;;;;;;;;;;;;13.62;38.58;92752.81;2051692;70;20053;-77
2023/01/30 11:25:19;;;;;;;;;;;;;;;13.91;32.72;92737.97;2048654;70;20115;-79
2023/01/30 11:27:51;;;;;;;;;;;;;;;16.18;32.33;92758.13;2054995;70;20046;-81
2023/01/30 11:30:18;;;;;;;;;;;;;;;17.47;29.02;92772.34;2052065;70;20549;-80
2023/01/30 11:32:44;;;;;;;;;;;;;;;17.48;29.43;92756.72;2051859;70;20073;-80
2023/01/30 11:35:09;;;;;;;;;;;;;;;18.09;25.86;92754.56;2051684;70;20094;-82
2023/01/30 11:37:36;;;;;;;;;;;;;;;17.89;28.51;92748.94;2051670;70;20047;-83
2023/01/30 11:40:16;;;;;;;;;;;;;;;19.95;25.55;92744.56;2051764;70;20050;-84
2023/01/30 11:43:02;;;;;;;;;;;;;;;19.34;21.45;92736.41;2051787;70;20578;-82
2023/01/30 11:45:29;;;;;;;;;;;;;;;19.72;24.06;92723.25;2048339;70;20051;-84
2023/01/30 11:47:56;;;;;;;;;;;;;;;16.74;24.23;92722.00;2051672;70;20074;-83
2023/01/30 11:50:24;;;;;;;;;;;;;;;18.94;24.63;92702.44;2051670;70;20043;-81
2023/01/30 11:52:50;;;;;;;;;;;;;;;21.26;22.97;92696.97;2051744;70;20117;-83
2023/01/30 11:55:17;;;;;;;;;;;;;;;21.93;22.15;92697.56;2051731;70;20054;-82
2023/01/30 11:57:45;;;;;;;;;;;;;;;19.86;22.10;92694.34;2051636;70;20607;-83
2023/01/30 12:00:16;;;;;;;;;;;;;;;21.19;22.19;92697.50;2051720;70;20042;-82
2023/01/30 12:02:42;;;;;;;;;;;;;;;22.79;20.26;92678.97;2051999;70;20051;-82
2023/01/30 12:05:21;;;;;;;;;;;;;;;20.77;20.46;92675.13;2051742;70;20162;-81
2023/01/30 12:07:49;;;;;;;;;;;;;;;19.12;23.09;92677.31;2051724;70;20050;-81
2023/01/30 12:10:26;;;;;;;;;;;;;;;18.88;21.63;92671.63;2051793;70;20142;-78
2023/01/30 12:12:56;;;;;;;;;;;;;;;17.16;22.28;92644.63;2051564;70;20502;-78
2023/01/30 12:15:26;;;;;;;;;;;;;;;14.22;25.26;92644.66;2051828;70;20131;-78
2023/01/30 12:18:10;;;;;;;;;;;;;;;11.25;29.12;92651.81;2048485;70;20042;-78
2023/01/30 12:20:39;;;;;;;;;;;;;;;11.49;29.14;92630.66;2051572;70;20502;-77
2023/01/30 12:23:04;;;;;;;;;;;;;;;9.86;30.29;92633.03;2051608;70;20074;-79
2023/01/30 12:25:50;;;;;;;;;;;;;;;9.60;33.09;92640.53;2051648;70;20194;-78
2023/01/30 12:28:24;;;;;;;;;;;;;;;10.02;31.58;92627.66;2050079;70;20042;-82
2023/01/30 12:30:55;;;;;;;;;;;;;;;9.10;32.25;92627.53;2051501;70;20145;-79
2023/01/30 12:33:21;;;;;;;;;;;;;;;9.43;33.54;92621.19;2051712;70;20138;-79
2023/01/30 12:36:02;;;;;;;;;;;;;;;9.48;35.54;92622.16;2048326;70;20503;-78
2023/01/30 12:38:41;;;;;;;;;;;;;;;8.17;34.49;92613.63;2051791;70;20479;-78
2023/01/30 12:41:16;;;;;;;;;;;;;;;7.95;34.75;92629.66;2051572;70;20133;-78
2023/01/30 12:44:01;;;;;;;;;;;;;;;7.46;35.91;92626.25;2051522;70;20043;-80
2023/01/30 12:46:29;;;;;;;;;;;;;;;7.46;35.75;92620.66;2048347;70;20047;-78
2023/01/30 12:49:13;;;;;;;;;;;;;;;7.45;35.15;92605.19;2051752;70;20062;-79
2023/01/30 12:52:08;;;;;;;;;;;;;;;7.26;38.38;92603.16;2051488;70;20035;-78
2023/01/30 12:54:42;;;;;;;;;;;;;;;7.13;36.57;92606.41;2049905;70;20170;-79
2023/01/30 12:57:16;;;;;;;;;;;;;;;7.09;36.96;92603.31;2051587;70;20051;-79
2023/01/30 12:59:49;;;;;;;;;;;;;;;5.94;38.65;92607.47;2051743;70;20074;-78
2023/01/30 13:02:17;;;;;;;;;;;;;;;5.29;40.85;92611.56;2052652;70;20159;-78